Time;durP1;ratioP1;P1;durP2;ratioP2;P2;SDS_P1;SDS_P2;PMS_P1;PMS_P2;Temp;Humidity;BMP_temperature;BMP_pressure;BME280_temperature;BME280_humidity;BME280_pressure;Samples;Min_cycle;Max_cycle;Signal;HPM_P1;HPM_P2
2023/05/28 00:02:19;;;;;;;6.87;2.63;;;18.00;54.60;;;;;;5045429;28;20203;-83
2023/05/28 00:04:44;;;;;;;6.80;2.63;;;17.90;54.70;;;;;;5033422;28;20033;-83
2023/05/28 00:07:10;;;;;;;5.45;2.40;;;17.90;54.90;;;;;;5058076;28;20043;-81
2023/05/28 00:09:37;;;;;;;5.33;2.47;;;17.80;55.10;;;;;;5038775;28;20044;-84
2023/05/28 00:12:03;;;;;;;5.65;2.65;;;17.80;55.30;;;;;;5046953;28;20123;-82
2023/05/28 00:14:29;;;;;;;7.32;2.65;;;17.70;55.40;;;;;;5068192;28;20043;-84
2023/05/28 00:16:56;;;;;;;6.13;2.60;;;17.70;55.60;;;;;;5050288;28;20059;-83
2023/05/28 00:19:22;;;;;;;5.18;2.42;;;17.60;55.60;;;;;;5051126;28;20037;-83
2023/05/28 00:21:48;;;;;;;4.90;2.73;;;17.60;55.90;;;;;;5081441;27;20108;-84
2023/05/28 00:24:13;;;;;;;9.35;2.90;;;17.50;56.00;;;;;;5088675;27;20036;-84
2023/05/28 00:26:39;;;;;;;5.83;2.40;;;17.50;56.10;;;;;;5015204;28;20060;-80
2023/05/28 00:29:05;;;;;;;6.30;2.88;;;17.40;56.10;;;;;;5057514;28;20056;-83
2023/05/28 00:31:31;;;;;;;4.43;2.30;;;17.30;56.20;;;;;;5051012;28;20047;-83
2023/05/28 00:33:57;;;;;;;5.17;2.73;;;17.40;56.40;;;;;;5044556;28;20045;-83
2023/05/28 00:36:22;;;;;;;4.18;2.30;;;17.30;56.50;;;;;;5049341;28;20194;-83
2023/05/28 00:38:48;;;;;;;4.47;2.47;;;17.20;56.60;;;;;;5057621;28;20491;-82
2023/05/28 00:41:22;;;;;;;5.82;2.60;;;17.20;56.70;;;;;;5039242;28;20029;-83
2023/05/28 00:43:49;;;;;;;4.68;2.60;;;17.10;57.60;;;;;;5043583;28;20036;-84
2023/05/28 00:46:19;;;;;;;5.68;2.60;;;17.10;56.80;;;;;;5043232;28;20024;-84
2023/05/28 00:48:45;;;;;;;5.32;2.60;;;17.00;57.30;;;;;;5041947;28;20479;-83
2023/05/28 00:51:12;;;;;;;6.33;2.83;;;17.00;57.20;;;;;;5051746;28;20377;-83
2023/05/28 00:53:40;;;;;;;5.43;2.65;;;16.90;57.50;;;;;;5056892;28;20036;-81
2023/05/28 00:56:08;;;;;;;4.57;2.47;;;16.90;57.50;;;;;;5036471;28;20549;-84
2023/05/28 00:58:39;;;;;;;4.50;2.33;;;16.90;57.70;;;;;;5046701;28;20602;-80
2023/05/28 01:01:09;;;;;;;6.05;2.70;;;16.90;57.80;;;;;;5058600;28;20850;-83
2023/05/28 01:03:39;;;;;;;5.53;2.47;;;16.80;57.80;;;;;;5032028;28;20044;-81
2023/05/28 01:06:12;;;;;;;5.43;2.70;;;16.80;57.90;;;;;;5071185;27;20716;-83
2023/05/28 01:08:39;;;;;;;4.85;2.60;;;16.80;58.80;;;;;;5068648;28;20021;-81
2023/05/28 01:11:09;;;;;;;5.68;2.60;;;16.70;58.20;;;;;;5055760;28;20527;-84
2023/05/28 01:13:36;;;;;;;5.30;2.65;;;16.80;58.60;;;;;;5054701;27;20020;-80
2023/05/28 01:16:03;;;;;;;7.07;2.60;;;16.70;58.50;;;;;;5056362;28;20657;-83
2023/05/28 01:18:31;;;;;;;5.40;2.53;;;16.70;58.50;;;;;;5052259;28;20036;-81
2023/05/28 01:21:01;;;;;;;6.47;2.58;;;16.60;58.90;;;;;;5040906;28;20021;-83
2023/05/28 01:23:28;;;;;;;5.97;2.60;;;16.60;59.00;;;;;;5049324;28;20220;-81
2023/05/28 01:25:56;;;;;;;5.05;2.53;;;16.60;59.00;;;;;;5058475;28;20025;-82
2023/05/28 01:28:22;;;;;;;5.07;2.77;;;16.60;59.10;;;;;;5034399;28;20033;-81
2023/05/28 01:30:48;;;;;;;5.13;2.70;;;16.50;59.30;;;;;;5031489;28;20097;-83
2023/05/28 01:33:15;;;;;;;7.28;2.72;;;16.50;59.40;;;;;;5034715;28;20120;-85
2023/05/28 01:35:42;;;;;;;5.40;2.47;;;16.50;59.50;;;;;;5045324;28;20165;-84
2023/05/28 01:38:11;;;;;;;5.37;2.70;;;16.50;59.80;;;;;;5050895;28;20039;-84
2023/05/28 01:40:46;;;;;;;5.22;2.53;;;16.40;60.10;;;;;;5043405;28;20028;-81
2023/05/28 01:43:12;;;;;;;5.85;2.70;;;16.40;61.30;;;;;;5025624;28;20440;-82
2023/05/28 01:45:39;;;;;;;6.13;3.13;;;16.40;60.30;;;;;;5059855;28;20052;-84
2023/05/28 01:48:06;;;;;;;5.85;2.80;;;16.40;60.80;;;;;;5042752;28;20098;-80
2023/05/28 01:50:32;;;;;;;5.90;2.77;;;16.40;61.10;;;;;;5042401;28;20033;-81
2023/05/28 01:52:59;;;;;;;5.75;2.60;;;16.40;61.10;;;;;;5053758;28;20028;-83
2023/05/28 01:55:25;;;;;;;6.72;2.72;;;16.30;61.10;;;;;;5048400;28;20029;-80
2023/05/28 01:57:51;;;;;;;7.10;2.78;;;16.30;61.50;;;;;;5035015;28;20157;-83
2023/05/28 02:00:17;;;;;;;6.90;2.60;;;16.30;61.40;;;;;;5069013;28;20070;-81
2023/05/28 02:02:44;;;;;;;5.40;2.75;;;16.30;61.40;;;;;;5054677;28;20190;-83
2023/05/28 02:05:10;;;;;;;5.70;2.83;;;16.30;61.70;;;;;;5045777;28;20056;-83
2023/05/28 02:07:36;;;;;;;5.43;2.63;;;16.30;61.80;;;;;;5039124;28;20528;-83
2023/05/28 02:10:02;;;;;;;7.03;3.37;;;16.30;62.00;;;;;;5046416;28;20024;-81
2023/05/28 02:12:28;;;;;;;6.30;2.97;;;16.20;62.10;;;;;;5074177;27;20071;-81
2023/05/28 02:14:53;;;;;;;5.38;2.83;;;16.20;62.10;;;;;;5032423;28;20036;-84
2023/05/28 02:17:20;;;;;;;5.80;2.97;;;16.20;62.20;;;;;;5046383;28;20081;-80
2023/05/28 02:19:46;;;;;;;6.53;2.83;;;16.10;62.20;;;;;;5074206;28;20155;-83
2023/05/28 02:22:12;;;;;;;7.15;3.10;;;16.20;62.40;;;;;;5048823;28;20024;-83
2023/05/28 02:24:39;;;;;;;5.35;2.70;;;16.10;62.60;;;;;;5053142;28;20032;-83
2023/05/28 02:27:07;;;;;;;4.93;2.63;;;16.10;62.70;;;;;;5063901;28;20024;-83
2023/05/28 02:29:34;;;;;;;5.83;2.87;;;16.00;62.80;;;;;;5057909;28;20028;-82
2023/05/28 02:32:01;;;;;;;6.35;2.95;;;16.00;62.70;;;;;;5050493;28;20040;-82
2023/05/28 02:34:31;;;;;;;5.18;3.10;;;16.00;62.80;;;;;;5081105;28;20115;-80
2023/05/28 02:36:57;;;;;;;5.68;2.95;;;15.90;63.00;;;;;;5049244;28;20076;-84
2023/05/28 02:39:23;;;;;;;5.57;2.90;;;15.90;62.90;;;;;;5042909;28;20152;-80
2023/05/28 02:41:49;;;;;;;6.30;2.83;;;15.90;63.10;;;;;;5046994;28;20037;-84
2023/05/28 02:44:15;;;;;;;5.45;3.10;;;15.90;63.30;;;;;;5065392;28;20210;-81
2023/05/28 02:46:41;;;;;;;6.28;3.10;;;15.80;63.50;;;;;;5017071;28;20048;-83
2023/05/28 02:49:07;;;;;;;6.23;2.83;;;15.80;63.50;;;;;;5042939;28;20434;-83
2023/05/28 02:51:33;;;;;;;7.30;3.08;;;15.70;63.60;;;;;;5044092;28;20020;-81
2023/05/28 02:53:59;;;;;;;6.68;2.88;;;15.70;63.70;;;;;;5046671;28;20507;-83
2023/05/28 02:56:25;;;;;;;5.73;2.73;;;15.70;63.80;;;;;;5068398;28;20505;-81
2023/05/28 02:58:52;;;;;;;5.47;2.80;;;15.60;63.80;;;;;;5064940;28;20028;-84
2023/05/28 03:01:18;;;;;;;5.40;2.53;;;15.60;63.80;;;;;;5033016;28;20028;-81
2023/05/28 03:03:44;;;;;;;5.90;3.22;;;15.60;64.00;;;;;;5043665;28;20035;-83
2023/05/28 03:06:10;;;;;;;4.80;2.63;;;15.50;64.00;;;;;;5030552;28;20054;-83
2023/05/28 03:08:36;;;;;;;6.32;2.53;;;15.50;64.00;;;;;;5023725;28;20970;-81
2023/05/28 03:11:02;;;;;;;5.18;2.53;;;15.40;64.00;;;;;;5055656;28;20009;-83
2023/05/28 03:13:27;;;;;;;4.93;2.63;;;15.50;64.30;;;;;;5025300;28;20159;-81
2023/05/28 03:15:53;;;;;;;5.70;2.53;;;15.40;64.30;;;;;;5024011;28;20340;-83
2023/05/28 03:18:19;;;;;;;5.17;2.67;;;15.40;64.40;;;;;;5046660;28;20052;-81
2023/05/28 03:20:45;;;;;;;5.10;2.53;;;15.30;64.40;;;;;;5036781;28;20274;-82
2023/05/28 03:23:10;;;;;;;6.50;2.63;;;15.40;64.50;;;;;;5052888;28;20572;-81
2023/05/28 03:25:36;;;;;;;5.15;2.58;;;15.30;64.50;;;;;;5045084;28;20497;-82
2023/05/28 03:28:04;;;;;;;4.67;2.57;;;15.30;64.70;;;;;;5048051;28;20045;-81
2023/05/28 03:30:30;;;;;;;6.57;2.87;;;15.30;64.80;;;;;;5033758;28;20282;-80
2023/05/28 03:32:56;;;;;;;6.25;2.95;;;15.30;64.90;;;;;;5047984;28;20053;-83
2023/05/28 03:35:22;;;;;;;4.82;2.55;;;15.20;64.90;;;;;;5037753;28;20040;-80
2023/05/28 03:37:48;;;;;;;6.23;2.67;;;15.20;65.10;;;;;;5052391;28;20047;-82
2023/05/28 03:40:14;;;;;;;6.75;2.88;;;15.20;65.00;;;;;;5022055;28;20021;-83
2023/05/28 03:42:40;;;;;;;4.88;2.85;;;15.20;65.20;;;;;;5047187;28;20302;-83
2023/05/28 03:45:07;;;;;;;7.00;2.97;;;15.10;65.30;;;;;;5043533;28;20028;-82
2023/05/28 03:47:34;;;;;;;6.47;2.80;;;15.10;65.40;;;;;;5032355;28;20113;-82
2023/05/28 03:50:00;;;;;;;6.18;3.00;;;15.10;65.50;;;;;;5056316;28;20066;-83
2023/05/28 03:52:27;;;;;;;7.05;3.00;;;15.10;65.70;;;;;;5060840;28;20579;-81
2023/05/28 03:54:52;;;;;;;8.05;2.80;;;15.00;65.70;;;;;;5040765;28;20037;-83
2023/05/28 03:57:18;;;;;;;6.73;2.90;;;15.00;65.70;;;;;;5050105;28;20039;-82
2023/05/28 03:59:44;;;;;;;4.30;2.67;;;15.00;65.90;;;;;;5043585;28;20333;-82
2023/05/28 04:02:10;;;;;;;5.80;2.77;;;15.00;66.00;;;;;;5039457;28;20082;-82
2023/05/28 04:04:36;;;;;;;4.60;2.50;;;15.00;66.00;;;;;;5028453;28;20279;-82
2023/05/28 04:07:02;;;;;;;5.45;2.92;;;14.90;66.00;;;;;;5043529;28;20029;-82
2023/05/28 04:09:28;;;;;;;6.32;2.95;;;14.90;66.00;;;;;;5036288;28;20098;-81
2023/05/28 04:11:54;;;;;;;5.60;2.67;;;14.90;66.10;;;;;;5053781;28;20496;-83
2023/05/28 04:14:20;;;;;;;5.07;2.78;;;14.80;66.10;;;;;;5051992;28;20477;-81
2023/05/28 04:16:47;;;;;;;5.47;2.60;;;14.80;66.20;;;;;;5043070;28;20084;-83
2023/05/28 04:19:13;;;;;;;5.93;2.50;;;14.80;66.30;;;;;;5032513;28;20028;-82
2023/05/28 04:21:39;;;;;;;5.88;2.60;;;14.90;66.50;;;;;;5040895;28;20079;-82
2023/05/28 04:24:05;;;;;;;5.30;2.63;;;14.80;66.50;;;;;;5041772;28;20036;-83
2023/05/28 04:26:32;;;;;;;4.93;2.45;;;14.80;66.70;;;;;;5071221;28;20037;-83
2023/05/28 04:28:59;;;;;;;7.28;2.88;;;14.80;66.80;;;;;;5080521;28;20038;-82
2023/05/28 04:31:27;;;;;;;5.80;2.67;;;14.80;67.00;;;;;;5040500;28;20032;-82
2023/05/28 04:33:53;;;;;;;4.90;3.00;;;14.80;67.20;;;;;;5031496;28;20039;-83
2023/05/28 04:36:20;;;;;;;6.88;2.85;;;14.80;67.40;;;;;;5054025;28;20052;-81
2023/05/28 04:38:46;;;;;;;7.03;2.85;;;14.80;67.60;;;;;;5040729;28;20033;-83
2023/05/28 04:41:15;;;;;;;5.55;3.10;;;14.80;67.60;;;;;;5053420;28;20021;-81
2023/05/28 04:43:41;;;;;;;5.55;2.72;;;14.90;67.80;;;;;;5043099;28;20040;-82
2023/05/28 04:46:08;;;;;;;6.13;2.90;;;14.90;67.80;;;;;;5075776;28;20024;-83
2023/05/28 04:48:37;;;;;;;7.10;3.00;;;14.90;68.10;;;;;;5062699;27;20549;-83
2023/05/28 04:51:05;;;;;;;7.65;3.33;;;14.90;68.30;;;;;;5053726;28;20016;-83
2023/05/28 04:53:31;;;;;;;7.95;3.08;;;15.00;68.60;;;;;;5043642;28;20020;-81
2023/05/28 04:55:57;;;;;;;8.33;2.87;;;14.90;68.70;;;;;;5053454;28;20070;-83
2023/05/28 04:58:23;;;;;;;6.55;3.05;;;15.00;68.80;;;;;;5041230;28;20390;-81
2023/05/28 05:00:51;;;;;;;7.18;3.10;;;15.00;68.90;;;;;;5050869;28;20433;-81
2023/05/28 05:03:16;;;;;;;7.10;3.13;;;15.00;68.90;;;;;;5047583;28;20221;-80
2023/05/28 05:05:42;;;;;;;7.87;3.43;;;15.10;69.10;;;;;;5035766;28;20035;-82
2023/05/28 05:08:09;;;;;;;6.32;3.20;;;15.10;69.30;;;;;;5038986;28;20033;-83
2023/05/28 05:10:34;;;;;;;7.20;3.03;;;15.10;69.10;;;;;;5049638;28;20389;-82
2023/05/28 05:13:00;;;;;;;6.75;3.40;;;15.20;69.20;;;;;;5045065;28;20035;-81
2023/05/28 05:15:27;;;;;;;6.07;2.97;;;15.20;69.00;;;;;;5060132;28;20026;-84
2023/05/28 05:17:52;;;;;;;6.57;3.35;;;15.20;69.30;;;;;;5043705;28;20413;-81
2023/05/28 05:20:18;;;;;;;6.23;3.10;;;15.20;69.60;;;;;;5033274;28;20688;-81
2023/05/28 05:22:44;;;;;;;5.55;2.72;;;15.30;69.60;;;;;;5042944;28;20028;-83
2023/05/28 05:25:10;;;;;;;6.55;3.10;;;15.30;69.70;;;;;;5064408;28;20028;-83
2023/05/28 05:27:36;;;;;;;5.93;3.30;;;15.30;69.60;;;;;;5046622;28;20037;-83
2023/05/28 05:30:03;;;;;;;6.55;3.15;;;15.40;69.10;;;;;;5068734;28;20077;-80
2023/05/28 05:32:29;;;;;;;5.85;2.83;;;15.40;69.90;;;;;;5050357;28;20398;-81
2023/05/28 05:34:55;;;;;;;7.13;3.30;;;15.40;69.80;;;;;;5069576;28;20085;-81
2023/05/28 05:37:21;;;;;;;6.18;3.33;;;15.50;69.50;;;;;;5007228;28;20637;-83
2023/05/28 05:39:47;;;;;;;6.78;3.30;;;15.50;69.70;;;;;;5073113;28;20024;-81
2023/05/28 05:42:13;;;;;;;5.17;3.13;;;15.60;69.70;;;;;;5048944;28;20272;-82
2023/05/28 05:44:39;;;;;;;6.72;3.00;;;15.60;69.80;;;;;;5037865;28;20025;-83
2023/05/28 05:47:05;;;;;;;6.78;3.38;;;15.60;69.70;;;;;;5028483;28;20032;-84
2023/05/28 05:49:30;;;;;;;5.90;3.10;;;15.70;70.00;;;;;;5059898;28;20143;-83
2023/05/28 05:51:56;;;;;;;6.25;3.10;;;15.70;69.90;;;;;;5036500;28;20028;-80
2023/05/28 05:54:22;;;;;;;7.83;3.50;;;15.80;69.70;;;;;;5045960;28;20356;-83
2023/05/28 05:56:48;;;;;;;6.50;3.08;;;15.90;70.00;;;;;;5044866;28;20017;-81
2023/05/28 05:59:14;;;;;;;6.97;3.05;;;15.90;69.90;;;;;;5042070;28;20374;-83
2023/05/28 06:01:40;;;;;;;7.88;3.60;;;16.00;69.90;;;;;;5057145;28;20512;-82
2023/05/28 06:04:06;;;;;;;6.27;3.03;;;16.10;69.80;;;;;;5049711;28;20530;-85
2023/05/28 06:06:32;;;;;;;5.50;2.80;;;16.10;70.00;;;;;;5081867;28;20020;-79
2023/05/28 06:08:57;;;;;;;5.27;3.03;;;16.20;70.20;;;;;;5031096;28;20728;-79
2023/05/28 06:11:25;;;;;;;6.50;2.88;;;16.30;70.30;;;;;;5047898;28;20549;-79
2023/05/28 06:13:51;;;;;;;6.63;3.00;;;16.40;70.30;;;;;;5053833;28;20567;-79
2023/05/28 06:16:17;;;;;;;5.53;2.97;;;16.50;70.40;;;;;;5049663;28;20482;-78
2023/05/28 06:18:43;;;;;;;6.77;3.07;;;16.50;70.30;;;;;;5053583;28;20778;-79
2023/05/28 06:21:10;;;;;;;8.63;3.50;;;16.60;70.00;;;;;;5051989;28;20174;-79
2023/05/28 06:23:35;;;;;;;7.15;3.53;;;16.70;70.10;;;;;;5018050;28;20272;-80
2023/05/28 06:26:03;;;;;;;5.17;3.13;;;16.80;70.10;;;;;;5034338;28;20035;-79
2023/05/28 06:28:29;;;;;;;6.43;3.00;;;16.80;70.10;;;;;;5018255;28;20033;-80
2023/05/28 06:30:56;;;;;;;6.40;3.20;;;16.90;70.30;;;;;;5021286;28;20256;-79
2023/05/28 06:33:21;;;;;;;5.90;3.22;;;17.00;70.40;;;;;;5080588;28;20364;-79
2023/05/28 06:35:47;;;;;;;7.43;3.30;;;17.10;70.20;;;;;;5031825;28;20068;-78
2023/05/28 06:38:13;;;;;;;6.32;3.20;;;17.10;70.30;;;;;;5051573;28;20028;-79
2023/05/28 06:40:39;;;;;;;6.03;2.97;;;17.20;70.40;;;;;;5009651;28;20100;-79
2023/05/28 06:43:05;;;;;;;4.57;2.50;;;17.30;70.40;;;;;;5011278;28;20119;-79
2023/05/28 06:45:32;;;;;;;5.72;2.97;;;17.50;70.30;;;;;;5032019;28;20167;-79
2023/05/28 06:47:59;;;;;;;5.65;2.97;;;17.50;69.90;;;;;;5052814;28;20021;-79
2023/05/28 06:50:25;;;;;;;5.60;3.10;;;17.60;70.00;;;;;;5044094;28;20060;-79
2023/05/28 06:52:51;;;;;;;6.55;3.20;;;17.70;69.80;;;;;;5050418;28;20400;-78
2023/05/28 06:55:17;;;;;;;6.05;3.17;;;17.80;69.90;;;;;;5005437;28;20589;-80
2023/05/28 06:57:44;;;;;;;9.73;3.47;;;17.90;70.10;;;;;;5061860;28;20649;-80
2023/05/28 07:00:16;;;;;;;8.85;3.50;;;18.00;70.00;;;;;;5041113;28;20312;-81
2023/05/28 07:02:46;;;;;;;7.05;3.22;;;18.10;70.00;;;;;;5036392;28;20669;-80
2023/05/28 07:05:12;;;;;;;6.57;3.28;;;18.10;69.70;;;;;;5041136;28;20040;-80
2023/05/28 07:07:38;;;;;;;6.33;3.10;;;18.20;69.80;;;;;;5051046;28;20094;-80
2023/05/28 07:10:05;;;;;;;6.57;2.95;;;18.20;69.80;;;;;;5051786;28;21041;-80
2023/05/28 07:12:32;;;;;;;5.32;2.80;;;18.30;69.80;;;;;;5048373;28;20067;-79
2023/05/28 07:14:57;;;;;;;7.70;3.25;;;18.40;69.90;;;;;;5027515;28;20028;-80
2023/05/28 07:17:23;;;;;;;6.33;3.30;;;18.50;70.20;;;;;;5032668;28;20628;-79
2023/05/28 07:19:49;;;;;;;7.53;3.58;;;18.60;70.20;;;;;;5039384;28;20211;-80
2023/05/28 07:22:15;;;;;;;6.17;2.93;;;18.70;70.00;;;;;;5036666;28;20115;-80
2023/05/28 07:24:40;;;;;;;5.03;3.13;;;18.80;70.10;;;;;;5051097;28;20423;-80
2023/05/28 07:27:06;;;;;;;5.67;2.90;;;19.00;70.20;;;;;;5022114;28;20055;-80
2023/05/28 07:29:32;;;;;;;5.57;3.22;;;19.10;70.00;;;;;;5038541;28;20063;-79
2023/05/28 07:31:58;;;;;;;5.60;3.13;;;19.20;69.80;;;;;;5021496;28;20036;-80
2023/05/28 07:34:24;;;;;;;6.93;3.23;;;19.30;69.50;;;;;;5036487;28;20060;-79
2023/05/28 07:36:50;;;;;;;6.03;3.30;;;19.50;69.50;;;;;;5038134;28;20024;-79
2023/05/28 07:39:18;;;;;;;6.70;3.17;;;19.60;69.60;;;;;;5044980;28;20032;-80
2023/05/28 07:41:44;;;;;;;6.53;3.40;;;19.70;69.70;;;;;;5017103;28;20036;-80
2023/05/28 07:44:10;;;;;;;6.10;3.33;;;19.90;69.90;;;;;;5048705;28;20055;-79
2023/05/28 07:46:37;;;;;;;5.82;2.88;;;20.00;69.90;;;;;;5030853;28;20169;-80
2023/05/28 07:49:03;;;;;;;6.85;3.00;;;20.30;69.70;;;;;;5037666;28;20059;-80
2023/05/28 07:51:29;;;;;;;4.10;2.40;;;20.40;69.50;;;;;;5034309;28;20043;-80
2023/05/28 07:53:54;;;;;;;6.27;3.10;;;20.60;69.60;;;;;;5052726;28;20027;-80
2023/05/28 07:56:23;;;;;;;5.53;3.05;;;20.80;70.10;;;;;;5014220;28;20111;-80
2023/05/28 07:58:49;;;;;;;5.95;2.78;;;21.00;70.90;;;;;;5053495;28;20582;-80
2023/05/28 08:01:15;;;;;;;6.50;3.10;;;21.40;71.70;;;;;;5049746;28;20029;-79
2023/05/28 08:03:41;;;;;;;5.45;2.53;;;21.80;71.70;;;;;;5024330;28;20411;-81
2023/05/28 08:06:08;;;;;;;5.68;2.67;;;22.20;71.90;;;;;;5046704;28;20024;-81
2023/05/28 08:08:34;;;;;;;6.13;2.90;;;22.70;72.00;;;;;;5041907;28;20754;-81
2023/05/28 08:11:00;;;;;;;6.80;2.73;;;23.20;71.60;;;;;;5038087;28;20082;-80
2023/05/28 08:13:26;;;;;;;4.15;2.50;;;23.70;71.10;;;;;;5019593;28;20032;-80
2023/05/28 08:15:52;;;;;;;5.32;2.70;;;24.20;70.50;;;;;;5059233;28;20241;-81
2023/05/28 08:18:18;;;;;;;4.93;2.70;;;24.70;69.80;;;;;;5064273;28;20060;-80
2023/05/28 08:20:44;;;;;;;4.00;2.47;;;25.20;69.00;;;;;;5033186;28;20049;-80
2023/05/28 08:23:10;;;;;;;4.90;2.58;;;25.60;68.30;;;;;;5036339;28;20170;-80
2023/05/28 08:25:35;;;;;;;3.97;2.50;;;26.00;67.30;;;;;;5049450;28;20036;-80
2023/05/28 08:42:04;;;;;;;3.63;2.20;;;27.90;59.40;;;;;;5022443;28;20614;-80
2023/05/28 08:44:29;;;;;;;4.32;2.40;;;28.10;61.00;;;;;;5032739;28;20037;-79
2023/05/28 08:46:56;;;;;;;5.50;2.60;;;28.30;60.50;;;;;;5039210;28;20260;-79
2023/05/28 08:49:30;;;;;;;4.80;2.30;;;28.40;59.50;;;;;;5051941;28;20463;-80
2023/05/28 08:51:59;;;;;;;5.07;2.27;;;28.50;58.10;;;;;;5035295;28;20028;-82
2023/05/28 08:54:25;;;;;;;5.03;2.35;;;28.70;59.00;;;;;;5049701;28;20248;-81
2023/05/28 08:56:52;;;;;;;4.72;2.50;;;28.80;58.10;;;;;;5033093;28;20822;-81
2023/05/28 08:59:18;;;;;;;4.10;2.35;;;29.00;57.90;;;;;;5019373;28;20545;-81
2023/05/28 09:01:44;;;;;;;4.77;2.43;;;29.10;57.60;;;;;;5041603;28;20025;-80
2023/05/28 09:04:10;;;;;;;4.22;2.47;;;29.30;56.50;;;;;;5057326;28;20457;-82
2023/05/28 09:06:38;;;;;;;4.47;2.28;;;29.40;56.10;;;;;;5033892;28;20100;-80
2023/05/28 09:09:07;;;;;;;4.05;2.13;;;29.60;56.20;;;;;;5067580;28;20021;-81
2023/05/28 09:11:34;;;;;;;4.33;2.30;;;29.80;56.00;;;;;;5048230;28;20036;-79
2023/05/28 09:14:12;;;;;;;4.07;2.30;;;30.00;54.90;;;;;;5061862;27;20094;-81
2023/05/28 09:16:44;;;;;;;3.88;2.33;;;30.10;53.00;;;;;;5045565;28;20024;-81
2023/05/28 09:19:14;;;;;;;5.65;2.53;;;30.10;52.80;;;;;;5075790;27;20116;-79
2023/05/28 09:21:56;;;;;;;4.68;2.45;;;30.10;53.30;;;;;;5032165;28;20422;-82
2023/05/28 09:24:25;;;;;;;4.47;2.50;;;30.30;52.00;;;;;;5052380;28;20110;-80
2023/05/28 09:26:55;;;;;;;3.42;2.35;;;30.40;52.40;;;;;;5043426;28;21360;-81
2023/05/28 09:29:25;;;;;;;3.92;2.17;;;30.50;52.20;;;;;;5027573;28;20021;-80
2023/05/28 09:31:58;;;;;;;4.95;2.25;;;30.60;52.30;;;;;;5050513;28;20099;-83
2023/05/28 09:34:31;;;;;;;4.47;2.30;;;30.70;51.60;;;;;;5036867;28;20080;-80
2023/05/28 09:37:04;;;;;;;3.27;2.03;;;30.90;51.10;;;;;;5030182;28;20032;-81
2023/05/28 09:39:31;;;;;;;5.95;2.63;;;31.10;50.90;;;;;;5067936;28;20040;-81
2023/05/28 09:42:09;;;;;;;3.90;2.20;;;31.30;50.60;;;;;;5042530;28;20312;-81
2023/05/28 09:44:36;;;;;;;5.78;2.30;;;31.40;49.60;;;;;;5029310;28;20047;-80
2023/05/28 09:47:16;;;;;;;5.95;2.38;;;31.50;49.70;;;;;;5051617;28;20467;-80
2023/05/28 09:49:46;;;;;;;4.73;2.57;;;31.50;48.10;;;;;;5036985;28;20168;-81
2023/05/28 09:52:22;;;;;;;4.47;2.40;;;31.60;48.60;;;;;;5031307;28;20028;-80
2023/05/28 09:54:55;;;;;;;3.58;2.10;;;31.60;47.80;;;;;;5059958;28;20051;-80
2023/05/28 09:57:29;;;;;;;4.22;2.42;;;31.60;47.50;;;;;;5050693;28;20122;-81
2023/05/28 09:59:56;;;;;;;4.30;2.40;;;31.70;47.70;;;;;;5082026;28;20107;-80
2023/05/28 10:02:22;;;;;;;3.77;2.10;;;31.80;47.80;;;;;;5027485;28;20115;-80
2023/05/28 10:04:51;;;;;;;4.15;2.05;;;31.90;48.00;;;;;;5026964;28;20051;-83
2023/05/28 10:07:19;;;;;;;3.88;2.20;;;32.00;48.40;;;;;;5065219;28;20025;-82
2023/05/28 10:09:45;;;;;;;3.65;2.35;;;32.20;48.40;;;;;;5027357;28;20244;-81
2023/05/28 10:12:18;;;;;;;3.43;2.40;;;32.40;47.80;;;;;;5051869;28;20040;-81
2023/05/28 10:14:46;;;;;;;4.70;2.80;;;32.70;46.60;;;;;;5041084;28;20267;-82
2023/05/28 10:17:13;;;;;;;4.47;2.47;;;32.80;45.70;;;;;;5024095;28;20043;-80
2023/05/28 10:19:40;;;;;;;5.70;2.53;;;32.90;45.60;;;;;;5051623;28;20025;-81
2023/05/28 10:22:07;;;;;;;4.00;2.40;;;33.00;45.20;;;;;;5052880;28;20029;-82
2023/05/28 10:24:33;;;;;;;6.27;2.40;;;33.00;45.10;;;;;;5034370;28;20032;-81
2023/05/28 10:27:00;;;;;;;4.07;2.60;;;33.00;44.20;;;;;;5049176;28;20013;-80
2023/05/28 10:29:26;;;;;;;4.95;2.22;;;33.10;43.90;;;;;;5041432;28;20224;-80
2023/05/28 10:32:02;;;;;;;5.28;2.78;;;33.10;44.00;;;;;;5020662;28;20062;-80
2023/05/28 10:34:32;;;;;;;4.22;2.58;;;33.10;42.70;;;;;;5047340;28;20536;-82
2023/05/28 10:37:02;;;;;;;4.50;2.43;;;33.20;43.30;;;;;;5039212;28;20024;-81
2023/05/28 10:39:40;;;;;;;3.90;2.20;;;33.30;43.70;;;;;;5048429;28;20457;-81
2023/05/28 10:42:07;;;;;;;4.15;2.17;;;33.40;43.20;;;;;;5042193;28;20031;-83
2023/05/28 10:45:06;;;;;;;3.47;2.17;;;33.40;43.60;;;;;;5053198;28;20312;-82
2023/05/28 10:47:39;;;;;;;3.97;2.28;;;33.60;42.90;;;;;;5015537;28;21559;-82
2023/05/28 10:50:08;;;;;;;3.73;2.17;;;33.60;42.20;;;;;;5067062;28;20060;-81
2023/05/28 10:52:35;;;;;;;3.90;2.42;;;33.60;41.90;;;;;;5058711;27;20292;-80
2023/05/28 10:55:07;;;;;;;4.22;2.35;;;33.60;42.70;;;;;;5053265;28;20501;-81
2023/05/28 10:57:47;;;;;;;4.60;2.30;;;33.70;42.40;;;;;;5032917;28;20224;-81
2023/05/28 11:00:23;;;;;;;4.88;2.67;;;33.80;43.00;;;;;;5043790;28;20021;-82
2023/05/28 11:02:51;;;;;;;3.97;2.40;;;34.00;42.00;;;;;;5000504;28;20037;-81
2023/05/28 11:05:23;;;;;;;3.13;2.35;;;34.00;42.10;;;;;;5047977;28;20108;-81
2023/05/28 11:07:49;;;;;;;4.15;2.58;;;34.10;41.70;;;;;;5023244;28;20027;-81
2023/05/28 11:10:15;;;;;;;3.00;2.35;;;34.20;41.60;;;;;;5031770;28;20149;-80
2023/05/28 11:12:43;;;;;;;3.85;2.30;;;34.30;41.40;;;;;;5044013;28;20037;-81
2023/05/28 11:15:11;;;;;;;3.57;2.40;;;34.20;41.30;;;;;;5044681;28;20034;-83
2023/05/28 11:17:45;;;;;;;4.32;2.50;;;34.30;40.90;;;;;;5041316;28;20028;-81
2023/05/28 11:20:20;;;;;;;4.70;2.53;;;34.30;40.50;;;;;;5028391;28;20024;-81
2023/05/28 11:22:47;;;;;;;3.50;2.35;;;34.40;40.80;;;;;;5050558;28;20040;-80
2023/05/28 11:25:13;;;;;;;3.90;2.38;;;34.40;40.40;;;;;;5091941;28;20121;-83
2023/05/28 11:27:40;;;;;;;4.10;2.40;;;34.40;40.60;;;;;;5048731;28;20025;-82
2023/05/28 11:30:12;;;;;;;4.00;2.60;;;34.50;40.70;;;;;;5053083;28;20671;-82
2023/05/28 11:32:39;;;;;;;4.10;2.30;;;34.60;40.10;;;;;;5042350;28;20083;-82
2023/05/28 11:35:05;;;;;;;4.07;2.42;;;34.80;40.40;;;;;;5033431;28;20036;-82
2023/05/28 11:37:33;;;;;;;3.42;2.47;;;35.00;40.60;;;;;;5042950;28;20138;-81
2023/05/28 11:40:00;;;;;;;4.47;2.40;;;35.20;40.50;;;;;;5070475;28;20048;-82
2023/05/28 11:42:29;;;;;;;3.35;2.13;;;35.40;39.90;;;;;;5025996;28;20029;-79
2023/05/28 11:44:56;;;;;;;3.97;2.53;;;35.50;39.10;;;;;;5049070;28;20143;-82
2023/05/28 11:47:22;;;;;;;3.50;2.30;;;35.50;38.50;;;;;;5038513;28;20055;-81
2023/05/28 11:49:49;;;;;;;4.57;2.70;;;35.50;38.10;;;;;;5065894;28;20113;-81
2023/05/28 11:52:17;;;;;;;4.70;2.70;;;35.30;37.90;;;;;;5044464;28;20422;-80
2023/05/28 11:54:45;;;;;;;5.22;3.00;;;35.10;37.60;;;;;;5074430;28;20340;-82
2023/05/28 11:57:11;;;;;;;4.13;2.40;;;34.80;37.30;;;;;;5056850;28;20493;-81
2023/05/28 11:59:38;;;;;;;3.70;2.33;;;34.70;38.00;;;;;;5040385;28;20622;-81
2023/05/28 12:02:14;;;;;;;4.38;2.30;;;34.60;38.00;;;;;;5042983;28;20027;-83
2023/05/28 12:04:52;;;;;;;4.97;2.37;;;34.50;37.80;;;;;;5039900;28;20033;-83
2023/05/28 12:07:18;;;;;;;3.92;2.47;;;34.40;38.00;;;;;;5022285;28;20517;-81
2023/05/28 12:09:44;;;;;;;5.35;2.67;;;34.40;37.80;;;;;;5045275;28;20024;-81
2023/05/28 12:12:11;;;;;;;3.75;2.30;;;34.40;37.80;;;;;;5044155;28;20122;-83
2023/05/28 12:14:38;;;;;;;3.43;2.23;;;34.40;38.00;;;;;;5023784;28;20029;-82
2023/05/28 12:17:11;;;;;;;3.50;2.40;;;34.50;38.30;;;;;;5036687;28;21171;-80
2023/05/28 12:19:37;;;;;;;4.65;2.53;;;34.70;38.20;;;;;;5036220;28;20032;-81
2023/05/28 12:22:16;;;;;;;4.03;2.58;;;34.80;38.10;;;;;;5025109;28;20233;-81
2023/05/28 12:24:53;;;;;;;4.07;2.42;;;34.80;37.20;;;;;;5007167;28;20492;-82
2023/05/28 12:27:20;;;;;;;3.90;2.40;;;34.80;37.00;;;;;;5046876;28;20052;-81
2023/05/28 12:29:46;;;;;;;4.93;3.00;;;34.80;37.70;;;;;;5034814;28;20104;-82
2023/05/28 12:32:11;;;;;;;4.68;2.63;;;34.80;37.00;;;;;;5030973;28;20206;-81
2023/05/28 12:34:38;;;;;;;4.68;2.83;;;34.80;37.20;;;;;;5026018;28;20040;-81
2023/05/28 12:37:04;;;;;;;5.23;2.70;;;34.70;36.30;;;;;;5052717;28;20349;-82
2023/05/28 12:39:30;;;;;;;4.10;2.42;;;34.50;36.10;;;;;;5054468;28;20051;-82
2023/05/28 12:41:56;;;;;;;4.60;2.40;;;34.30;35.50;;;;;;5018999;28;20148;-81
2023/05/28 12:44:22;;;;;;;3.30;2.20;;;34.20;35.90;;;;;;5040508;28;20044;-82
2023/05/28 12:46:49;;;;;;;3.60;2.30;;;34.10;36.20;;;;;;5042344;28;20048;-82
2023/05/28 12:49:15;;;;;;;4.45;2.53;;;34.20;36.40;;;;;;5013551;28;20029;-82
2023/05/28 12:51:41;;;;;;;4.22;2.50;;;34.20;36.60;;;;;;5002813;28;26400;-82
2023/05/28 12:54:07;;;;;;;4.20;2.53;;;34.30;36.70;;;;;;5043045;28;20029;-82
2023/05/28 12:56:33;;;;;;;4.17;2.30;;;34.30;36.80;;;;;;5036889;28;20585;-82
2023/05/28 12:58:59;;;;;;;3.15;2.33;;;34.40;36.70;;;;;;5058355;28;20473;-81
2023/05/28 13:01:25;;;;;;;4.07;2.53;;;34.50;36.10;;;;;;5028506;28;20028;-83
2023/05/28 13:03:51;;;;;;;4.68;2.53;;;34.40;35.60;;;;;;5088464;28;20013;-81